createdAt,value
2019-06-27T00:01:05.328Z,56.54
2019-06-27T00:05:07.557Z,56.53
2019-06-27T00:09:11.509Z,56.77
2019-06-27T00:13:13.732Z,56.55
2019-06-27T00:17:15.963Z,56.53
2019-06-27T00:21:18.180Z,56.61
2019-06-27T00:25:20.424Z,56.76
2019-06-27T00:29:22.635Z,56.43
2019-06-27T00:33:24.851Z,56.59
2019-06-27T00:37:27.071Z,56.81
2019-06-27T00:41:29.271Z,56.55
2019-06-27T00:45:31.505Z,56.61
2019-06-27T00:49:33.709Z,56.68
2019-06-27T00:53:35.941Z,56.62
2019-06-27T00:57:38.178Z,56.73
2019-06-27T01:01:40.402Z,56.70
2019-06-27T01:05:42.617Z,56.61
2019-06-27T01:09:44.841Z,56.76
2019-06-27T01:13:47.072Z,56.63
2019-06-27T01:17:49.299Z,56.72
2019-06-27T01:21:51.516Z,56.70
2019-06-27T01:25:53.748Z,56.63
2019-06-27T01:29:55.955Z,56.61
2019-06-27T01:33:58.166Z,56.61
2019-06-27T01:38:00.395Z,56.59
2019-06-27T01:42:02.629Z,56.67
2019-06-27T01:46:05.040Z,56.72
2019-06-27T01:50:07.254Z,56.68
2019-06-27T01:54:09.476Z,56.73
2019-06-27T01:58:11.684Z,56.68
2019-06-27T02:02:13.920Z,56.78
2019-06-27T02:06:17.156Z,56.79
2019-06-27T02:10:19.360Z,56.74
2019-06-27T02:14:21.604Z,56.76
2019-06-27T02:18:23.865Z,56.78
2019-06-27T02:22:26.092Z,56.72
2019-06-27T02:26:28.311Z,56.81
2019-06-27T02:30:30.579Z,56.75
2019-06-27T02:34:32.789Z,56.61
2019-06-27T02:38:35.031Z,56.72
2019-06-27T02:42:37.260Z,56.92
2019-06-27T02:46:39.467Z,56.82
2019-06-27T02:50:41.720Z,56.70
2019-06-27T02:54:43.969Z,56.69
2019-06-27T02:58:46.194Z,56.61
2019-06-27T03:02:48.467Z,56.75
2019-06-27T03:06:50.714Z,56.80
2019-06-27T03:10:52.908Z,56.79
2019-06-27T03:14:55.137Z,56.65
2019-06-27T03:18:57.358Z,56.70
2019-06-27T03:22:59.583Z,56.76
2019-06-27T03:27:01.790Z,56.61
2019-06-27T03:31:04.034Z,56.75
2019-06-27T03:35:06.322Z,56.74
2019-06-27T03:39:08.612Z,56.65
2019-06-27T03:43:10.853Z,56.75
2019-06-27T03:47:13.060Z,56.73
2019-06-27T03:51:15.276Z,56.66
2019-06-27T03:55:17.504Z,56.77
2019-06-27T03:59:19.721Z,56.72
2019-06-27T04:03:21.947Z,56.75
2019-06-27T04:07:24.174Z,56.57
2019-06-27T04:11:26.446Z,56.60
2019-06-27T04:15:28.670Z,56.43
2019-06-27T04:19:30.880Z,56.55
2019-06-27T04:23:33.148Z,56.75
2019-06-27T04:27:35.384Z,56.64
2019-06-27T04:31:37.597Z,56.68
2019-06-27T04:35:39.932Z,56.56
2019-06-27T04:39:42.161Z,56.63
2019-06-27T04:43:44.398Z,56.85
2019-06-27T04:47:46.622Z,56.86
2019-06-27T04:51:48.867Z,56.77
2019-06-27T04:55:51.096Z,56.85
2019-06-27T04:59:54.413Z,56.95
2019-06-27T05:03:56.832Z,57.01
2019-06-27T05:07:59.041Z,57.12
2019-06-27T05:12:01.270Z,55.98
2019-06-27T05:16:03.561Z,55.95
2019-06-27T05:20:05.799Z,55.69
2019-06-27T05:24:08.026Z,55.67
2019-06-27T05:28:10.231Z,56.03
2019-06-27T05:32:12.459Z,56.08
2019-06-27T05:36:14.679Z,56.32
2019-06-27T05:40:16.945Z,56.06
2019-06-27T05:44:19.155Z,56.30
2019-06-27T05:48:21.393Z,56.22
2019-06-27T05:52:23.619Z,56.30
2019-06-27T05:56:25.836Z,56.20
2019-06-27T06:00:29.621Z,56.42
2019-06-27T06:04:32.025Z,56.45
2019-06-27T06:08:34.255Z,56.45
2019-06-27T06:12:36.464Z,56.42
2019-06-27T06:16:38.680Z,56.57
2019-06-27T06:20:40.899Z,56.54
2019-06-27T06:24:43.112Z,56.66
2019-06-27T06:28:45.353Z,56.48
2019-06-27T06:32:47.561Z,56.51
2019-06-27T06:36:49.784Z,56.60
2019-06-27T06:40:52.012Z,56.57
2019-06-27T06:44:54.234Z,56.37
2019-06-27T06:48:56.454Z,56.49
2019-06-27T06:52:58.668Z,56.45
2019-06-27T06:57:00.901Z,56.57
2019-06-27T07:01:03.099Z,56.51
2019-06-27T07:05:05.449Z,56.68
2019-06-27T07:09:07.725Z,56.76
2019-06-27T07:13:09.960Z,56.62
2019-06-27T07:17:12.183Z,56.58
2019-06-27T07:21:14.428Z,56.76
2019-06-27T07:25:16.647Z,56.67
2019-06-27T07:29:18.928Z,56.79
2019-06-27T07:33:21.168Z,56.75
2019-06-27T07:37:23.393Z,56.91
2019-06-27T07:41:25.706Z,56.86
2019-06-27T07:45:27.915Z,56.85
2019-06-27T07:49:33.191Z,56.92
2019-06-27T07:53:34.008Z,56.90
2019-06-27T07:57:36.239Z,56.82
2019-06-27T08:01:38.447Z,56.91
2019-06-27T08:05:40.697Z,56.90
2019-06-27T08:09:42.908Z,56.82
2019-06-27T08:13:45.121Z,56.81
2019-06-27T08:17:47.367Z,56.82
2019-06-27T08:21:49.594Z,56.79
2019-06-27T08:25:51.791Z,56.83
2019-06-27T08:29:54.021Z,56.78
2019-06-27T08:33:56.236Z,56.77
2019-06-27T08:37:58.448Z,56.87
2019-06-27T08:42:00.679Z,56.77
2019-06-27T08:46:02.891Z,56.78
2019-06-27T08:50:05.174Z,56.76
2019-06-27T08:54:07.340Z,56.88
2019-06-27T08:58:09.566Z,56.83
2019-06-27T09:02:11.774Z,56.84
2019-06-27T09:06:14.005Z,56.83
2019-06-27T09:10:16.256Z,56.78
2019-06-27T09:14:19.455Z,56.81
2019-06-27T09:18:21.611Z,56.87
2019-06-27T09:22:23.832Z,56.81
2019-06-27T09:26:26.076Z,56.85
2019-06-27T09:30:28.318Z,56.83
2019-06-27T09:34:30.572Z,56.83
2019-06-27T09:38:32.776Z,56.84
2019-06-27T09:42:35.004Z,56.83
2019-06-27T09:46:37.284Z,56.83
2019-06-27T09:50:39.527Z,56.85
2019-06-27T09:54:41.752Z,56.75
2019-06-27T09:58:44.064Z,56.82
2019-06-27T10:02:46.287Z,56.77
2019-06-27T10:06:48.500Z,56.79
2019-06-27T10:10:50.730Z,56.73
2019-06-27T10:14:53.065Z,56.82
2019-06-27T10:18:55.297Z,56.77
2019-06-27T10:22:57.504Z,56.81
2019-06-27T10:26:59.715Z,56.81
2019-06-27T10:31:01.957Z,56.75
2019-06-27T10:35:04.189Z,56.69
2019-06-27T10:39:06.463Z,56.67
2019-06-27T10:43:08.684Z,56.60
2019-06-27T10:47:10.878Z,56.61
2019-06-27T10:51:13.103Z,56.63
2019-06-27T10:55:15.353Z,56.60
2019-06-27T10:59:17.603Z,56.70
2019-06-27T11:03:19.838Z,56.69
2019-06-27T11:07:22.143Z,56.61
2019-06-27T11:11:24.359Z,56.59
2019-06-27T11:15:26.617Z,56.71
2019-06-27T11:19:28.883Z,56.67
2019-06-27T11:23:31.101Z,56.73
2019-06-27T11:27:33.305Z,56.68
2019-06-27T11:31:35.627Z,56.53
2019-06-27T11:35:37.843Z,56.44
2019-06-27T11:39:40.120Z,56.60
2019-06-27T11:43:42.515Z,56.64
2019-06-27T11:47:44.772Z,56.64
2019-06-27T11:51:46.970Z,56.42
2019-06-27T11:55:49.235Z,56.52
2019-06-27T11:59:51.511Z,56.55
2019-06-27T12:03:53.685Z,56.46
2019-06-27T12:07:56.017Z,56.47
2019-06-27T12:11:58.248Z,56.55
2019-06-27T12:16:00.644Z,56.49
2019-06-27T12:20:03.860Z,56.53
2019-06-27T12:24:06.158Z,56.32
2019-06-27T12:28:08.375Z,56.37
2019-06-27T12:32:10.606Z,56.44
2019-06-27T12:36:12.840Z,56.30
2019-06-27T12:40:15.053Z,56.43
2019-06-27T12:44:17.275Z,56.28
2019-06-27T12:48:19.478Z,56.27
2019-06-27T12:52:21.700Z,56.17
2019-06-27T12:56:23.936Z,56.24
2019-06-27T13:00:26.156Z,56.14
2019-06-27T13:04:28.624Z,56.19
2019-06-27T13:08:30.900Z,56.21
2019-06-27T13:12:33.140Z,56.21
2019-06-27T13:16:35.363Z,56.21
2019-06-27T13:20:37.602Z,56.16
2019-06-27T13:24:41.655Z,56.13
2019-06-27T13:28:45.572Z,56.08
2019-06-27T13:32:47.784Z,56.25
2019-06-27T13:36:50.078Z,56.20
2019-06-27T13:40:52.313Z,56.18
2019-06-27T13:44:54.545Z,56.06
2019-06-27T13:48:56.834Z,56.13
2019-06-27T13:52:59.090Z,55.86
2019-06-27T13:57:01.298Z,55.94
2019-06-27T14:01:03.566Z,56.12
2019-06-27T14:05:05.809Z,56.21
2019-06-27T14:09:08.033Z,56.10
2019-06-27T14:13:10.243Z,56.10
2019-06-27T14:17:12.499Z,56.18
2019-06-27T14:21:14.762Z,56.26
2019-06-27T14:25:16.940Z,56.36
2019-06-27T14:29:19.216Z,56.35
2019-06-27T14:33:21.387Z,56.30
2019-06-27T14:37:23.705Z,56.28
2019-06-27T14:41:25.915Z,56.10
2019-06-27T14:45:28.147Z,56.13
2019-06-27T14:49:30.366Z,56.22
2019-06-27T14:53:32.586Z,56.23
2019-06-27T14:57:34.792Z,56.32
2019-06-27T15:01:37.005Z,56.20
2019-06-27T15:05:39.217Z,56.25
2019-06-27T15:09:41.456Z,56.24
2019-06-27T15:13:43.673Z,56.24
2019-06-27T15:17:45.892Z,56.26
2019-06-27T15:21:48.121Z,56.29
2019-06-27T15:25:50.355Z,56.26
2019-06-27T15:29:52.705Z,56.25
2019-06-27T15:33:55.043Z,56.16
2019-06-27T15:37:57.318Z,56.05
2019-06-27T15:41:59.540Z,56.13
2019-06-27T15:46:01.987Z,56.14
2019-06-27T15:50:04.258Z,56.24
2019-06-27T15:54:06.455Z,56.15
2019-06-27T15:58:08.726Z,56.20
2019-06-27T16:02:10.969Z,56.06
2019-06-27T16:06:15.295Z,56.05
2019-06-27T16:10:17.568Z,55.92
2019-06-27T16:14:19.816Z,55.80
2019-06-27T16:18:22.036Z,55.66
2019-06-27T16:22:24.260Z,55.73
2019-06-27T16:26:26.504Z,55.56
2019-06-27T16:30:28.775Z,55.63
2019-06-27T16:34:31.018Z,54.99
2019-06-27T16:38:33.257Z,54.98
2019-06-27T16:42:35.507Z,55.73
2019-06-27T16:46:37.721Z,55.54
2019-06-27T16:50:40.065Z,55.62
2019-06-27T16:54:42.318Z,55.00
2019-06-27T16:58:44.664Z,55.32
2019-06-27T17:02:46.975Z,54.37
2019-06-27T17:06:49.220Z,54.41
2019-06-27T17:10:51.420Z,55.39
2019-06-27T17:14:53.658Z,54.92
2019-06-27T17:18:55.886Z,55.04
2019-06-27T17:22:58.197Z,55.00
2019-06-27T17:27:00.419Z,54.97
2019-06-27T17:31:02.668Z,53.65
2019-06-27T17:35:04.900Z,54.63
2019-06-27T17:39:07.140Z,55.69
2019-06-27T17:43:09.340Z,54.96
2019-06-27T17:47:11.575Z,55.15
2019-06-27T17:51:13.812Z,53.42
2019-06-27T17:55:16.145Z,53.46
2019-06-27T17:59:19.488Z,52.27
2019-06-27T18:03:21.717Z,53.80
2019-06-27T18:07:23.947Z,52.56
2019-06-27T18:11:26.198Z,52.22
2019-06-27T18:15:28.473Z,53.96
2019-06-27T18:19:30.752Z,54.41
2019-06-27T18:23:33.013Z,52.01
2019-06-27T18:27:35.237Z,54.55
2019-06-27T18:31:37.492Z,51.91
2019-06-27T18:35:39.809Z,53.16
2019-06-27T18:39:42.128Z,53.34
2019-06-27T18:43:44.364Z,53.54
2019-06-27T18:47:46.604Z,54.67
2019-06-27T18:51:48.851Z,53.34
2019-06-27T18:55:51.083Z,53.00
2019-06-27T18:59:53.882Z,52.56
2019-06-27T19:03:56.192Z,51.75
2019-06-27T19:07:58.436Z,52.16
2019-06-27T19:12:00.666Z,51.95
2019-06-27T19:16:02.929Z,52.33
2019-06-27T19:20:09.582Z,52.06
2019-06-27T19:24:29.440Z,51.84
2019-06-27T19:28:31.717Z,52.04
2019-06-27T19:32:34.027Z,51.80
2019-06-27T19:36:36.223Z,51.65
2019-06-27T19:40:38.442Z,51.85
2019-06-27T19:44:40.713Z,51.78
2019-06-27T19:48:45.621Z,52.17
2019-06-27T19:52:46.963Z,51.60
2019-06-27T19:56:49.200Z,52.05
2019-06-27T20:00:51.421Z,51.75
2019-06-27T20:04:53.765Z,51.84
2019-06-27T20:08:56.010Z,51.89
2019-06-27T20:12:58.223Z,51.88
2019-06-27T20:17:00.465Z,51.93
2019-06-27T20:21:02.752Z,52.35
2019-06-27T20:25:04.947Z,51.12
2019-06-27T20:29:07.184Z,52.59
2019-06-27T20:33:09.440Z,52.71
2019-06-27T20:37:11.659Z,51.72
2019-06-27T20:41:13.908Z,51.29
2019-06-27T20:45:16.152Z,51.82
2019-06-27T20:49:18.383Z,53.30
2019-06-27T20:53:20.609Z,53.60
2019-06-27T20:57:23.169Z,53.38
2019-06-27T21:01:25.384Z,52.95
2019-06-27T21:05:27.612Z,53.14
2019-06-27T21:09:29.880Z,52.37
2019-06-27T21:13:32.143Z,51.68
2019-06-27T21:17:34.348Z,51.56
2019-06-27T21:21:36.612Z,51.66
2019-06-27T21:25:38.815Z,51.62
2019-06-27T21:29:41.044Z,51.64
2019-06-27T21:33:43.329Z,51.76
2019-06-27T21:37:45.558Z,51.43
2019-06-27T21:41:47.794Z,51.50
2019-06-27T21:45:50.131Z,51.43
2019-06-27T21:49:52.357Z,51.43
2019-06-27T21:53:54.675Z,51.52
2019-06-27T21:57:59.869Z,51.31
2019-06-27T22:02:00.826Z,51.86
2019-06-27T22:06:03.168Z,51.39
2019-06-27T22:10:05.482Z,51.73
2019-06-27T22:14:07.725Z,51.44
2019-06-27T22:18:09.911Z,51.28
2019-06-27T22:22:12.140Z,51.51
2019-06-27T22:26:14.394Z,51.77
2019-06-27T22:30:16.609Z,51.54
2019-06-27T22:34:18.814Z,51.60
2019-06-27T22:38:38.537Z,51.62
2019-06-27T22:42:58.535Z,51.68
2019-06-27T22:47:18.587Z,51.76
2019-06-27T22:51:35.665Z,51.77
2019-06-27T22:55:37.888Z,51.77
2019-06-27T22:59:40.091Z,51.72
2019-06-27T23:03:42.297Z,51.90
2019-06-27T23:07:44.495Z,51.67
2019-06-27T23:11:46.727Z,51.71
2019-06-27T23:15:48.938Z,51.76
2019-06-27T23:19:51.158Z,51.90
2019-06-27T23:23:53.338Z,51.88
2019-06-27T23:27:55.543Z,51.72
2019-06-27T23:31:57.764Z,51.81
2019-06-27T23:35:59.989Z,51.89
2019-06-27T23:40:13.401Z,51.75
2019-06-27T23:44:06.060Z,52.03
2019-06-27T23:48:08.264Z,51.87
2019-06-27T23:52:10.477Z,51.91
2019-06-27T23:56:12.674Z,51.83
